Forside
METAR-TAF:

METAR-TAF

Lufthavne :

Tjeljabinsk, Rusland

Breddekreds: 55-10N, længdekreds: 061-24E, højde: 234 m

Aktuelle vejr

Denne rapport blev lavet for 21 minutter siden, kl. 03:30 UTC
Vind 4 kt fra vest
Temperatur -3°C
Fugtighed 58%
Tryk 1040 hPa
Sigt 10 km eller mere
Brudte skyer i en højde af 2600 ft

METAR: USCC 160330Z 27002MPS 9999 BKN026 M03/M10 Q1040 R27/250055 NOSIG RMK QFE759

Tid: 08:51 (03:51 UTC)

Vejrudsigter

Denne rapport blev lavet for 1 time og 51 minutter siden, kl. 02:00 UTC
Foreløbig gælder fra 16 på 03 UTC til 17 på 03 UTC
Vind 6 kt fra vest med vindstød på up til 16 kt
Sigt 10 km eller mere
Spredte skyer i en højde af 2000 ft
Midlertidig
fra 16 på 15 UTC til 17 på 03 UTC
Sigt: 3100 m
Brudte skyer i en højde af 1500 ft
dis

TAF: USCC 160200Z 1603/1703 28003G08MPS 9999 SCT020 TEMPO 1615/1703 3100 BR BKN015

Vejrobservationer og prognoser fra mere end 4000 lufthavne (METAR og TAF).

De gule og røde prikker repræsenterer de meteorologiske stationer.

Flyt musen over at se navnet på stationen.

Så klik over at se vejr observationer og prognoser.

At skifte det kort: Klik på de grønne knapper med et sort kors for at zoome ind; på den grønne knap med en bindestreg for at zoome ud; eller på de grønne pile for tilstødende kort.


METAR-TAF: